Time;durP1;ratioP1;P1;durP2;ratioP2;P2;SDS_P1;SDS_P2;PMS_P1;PMS_P2;Temp;Humidity;BMP_temperature;BMP_pressure;BME280_temperature;BME280_humidity;BME280_pressure;Samples;Min_cycle;Max_cycle;Signal;HPM_P1;HPM_P2
2022/10/30 00:01:12;;;;;;;;;;;;;;;21.15;71.45;101209.75;7282168;19;154121;-56
2022/10/30 00:03:39;;;;;;;;;;;;;;;21.17;71.61;101213.06;7282673;19;152482;-56
2022/10/30 00:06:06;;;;;;;;;;;;;;;21.18;71.62;101222.31;7281771;19;153034;-56
2022/10/30 00:08:33;;;;;;;;;;;;;;;21.18;71.41;101225.13;7281771;19;152708;-57
2022/10/30 00:11:03;;;;;;;;;;;;;;;21.18;71.88;101231.59;7283635;19;152466;-57
2022/10/30 00:13:30;;;;;;;;;;;;;;;21.19;71.51;101233.28;7285141;19;153775;-56
2022/10/30 00:15:57;;;;;;;;;;;;;;;21.20;71.47;101240.56;7282475;19;152015;-57
2022/10/30 00:18:24;;;;;;;;;;;;;;;21.20;71.36;101245.34;7282444;19;152624;-56
2022/10/30 00:20:51;;;;;;;;;;;;;;;21.21;71.73;101256.25;7282582;19;152550;-56
2022/10/30 00:23:19;;;;;;;;;;;;;;;21.22;71.81;101259.91;7282184;19;152179;-56
2022/10/30 00:25:46;;;;;;;;;;;;;;;21.22;71.64;101251.47;7281520;19;152956;-57
2022/10/30 00:28:13;;;;;;;;;;;;;;;21.22;71.48;101251.47;7278400;19;155366;-56
2022/10/30 00:30:39;;;;;;;;;;;;;;;21.22;71.68;101245.84;7281307;19;152383;-56
2022/10/30 00:33:06;;;;;;;;;;;;;;;21.21;71.88;101239.41;7281750;19;153672;-56
2022/10/30 00:35:33;;;;;;;;;;;;;;;21.21;71.53;101224.53;7282835;19;151970;-57
2022/10/30 00:38:00;;;;;;;;;;;;;;;21.22;72.12;101231.81;7281445;19;152234;-56
2022/10/30 00:40:27;;;;;;;;;;;;;;;21.20;72.18;101228.50;7279887;19;153505;-56
2022/10/30 00:42:54;;;;;;;;;;;;;;;21.21;72.10;101224.53;7276994;19;152427;-57
2022/10/30 00:45:21;;;;;;;;;;;;;;;21.20;72.55;101218.09;7279964;19;153470;-57
2022/10/30 00:47:51;;;;;;;;;;;;;;;21.21;72.18;101204.88;7280387;19;154400;-57
2022/10/30 00:50:24;;;;;;;;;;;;;;;21.22;72.52;101201.72;7280506;19;152731;-57
2022/10/30 00:52:57;;;;;;;;;;;;;;;21.21;72.24;101196.44;7279940;19;153171;-57
2022/10/30 00:55:29;;;;;;;;;;;;;;;21.21;72.78;101199.25;7286256;19;153922;-57
2022/10/30 00:57:57;;;;;;;;;;;;;;;21.21;72.38;101205.69;7278558;19;153633;-57
2022/10/30 01:00:26;;;;;;;;;;;;;;;21.22;72.29;101195.28;7279476;19;153092;-57
2022/10/30 01:02:54;;;;;;;;;;;;;;;21.22;72.63;101195.28;7280474;19;152014;-57
2022/10/30 01:05:24;;;;;;;;;;;;;;;21.23;72.36;101191.34;7281503;19;153008;-57
2022/10/30 01:07:50;;;;;;;;;;;;;;;21.22;72.92;101198.09;7278169;19;153990;-57
2022/10/30 01:10:17;;;;;;;;;;;;;;;21.22;72.76;101195.28;7282950;19;152541;-57
2022/10/30 01:12:45;;;;;;;;;;;;;;;21.22;72.67;101184.88;7278649;19;152616;-57
2022/10/30 01:15:13;;;;;;;;;;;;;;;21.21;73.22;101177.56;7277151;19;152472;-57
2022/10/30 01:17:43;;;;;;;;;;;;;;;21.23;72.85;101205.38;7285346;19;152553;-57
2022/10/30 01:20:13;;;;;;;;;;;;;;;21.23;72.97;101202.56;7278212;19;154927;-57
2022/10/30 01:22:42;;;;;;;;;;;;;;;21.22;72.69;101184.88;7280913;19;151867;-57
2022/10/30 01:25:17;;;;;;;;;;;;;;;21.23;73.25;101174.47;7281658;19;154397;-57
2022/10/30 01:27:47;;;;;;;;;;;;;;;21.23;72.80;101175.31;7276410;19;153905;-57
2022/10/30 01:30:19;;;;;;;;;;;;;;;21.23;73.24;101185.72;7282167;19;152140;-57
2022/10/30 01:32:49;;;;;;;;;;;;;;;21.24;72.88;101187.38;7280092;19;152558;-57
2022/10/30 01:35:20;;;;;;;;;;;;;;;21.24;72.82;101176.16;7277736;19;154302;-57
2022/10/30 01:37:54;;;;;;;;;;;;;;;21.25;73.18;101180.63;7280893;19;152062;-57
2022/10/30 01:40:21;;;;;;;;;;;;;;;21.24;73.33;101178.97;7286288;19;152603;-57
2022/10/30 01:42:49;;;;;;;;;;;;;;;21.25;73.38;101180.63;7276799;19;153062;-57
2022/10/30 01:45:16;;;;;;;;;;;;;;;21.26;73.18;101185.09;7280071;19;152971;-57
2022/10/30 01:47:46;;;;;;;;;;;;;;;21.25;73.35;101180.63;7284913;19;153396;-57
2022/10/30 01:50:14;;;;;;;;;;;;;;;21.27;73.26;101179.16;7288071;19;152152;-57
2022/10/30 01:52:44;;;;;;;;;;;;;;;21.26;73.33;101168.22;7286859;19;155029;-56
2022/10/30 01:55:13;;;;;;;;;;;;;;;21.27;73.12;101181.13;7284534;19;154302;-57
2022/10/30 01:57:48;;;;;;;;;;;;;;;21.27;73.48;101176.34;7282933;19;152467;-57
2022/10/30 02:00:16;;;;;;;;;;;;;;;21.25;73.52;101177.81;7286108;19;154126;-57
2022/10/30 02:02:43;;;;;;;;;;;;;;;21.26;74.07;101185.91;7290164;19;153892;-57
2022/10/30 02:05:12;;;;;;;;;;;;;;;21.27;73.62;101193.22;7286606;19;153199;-57
2022/10/30 02:07:39;;;;;;;;;;;;;;;21.28;73.80;101191.25;7285078;19;153396;-56
2022/10/30 02:10:06;;;;;;;;;;;;;;;21.29;73.49;101190.13;7286775;19;151928;-57
2022/10/30 02:12:33;;;;;;;;;;;;;;;21.29;73.70;101184.50;7281397;19;152285;-57
2022/10/30 02:15:00;;;;;;;;;;;;;;;21.27;73.50;101179.16;7282465;19;152604;-57
2022/10/30 02:17:27;;;;;;;;;;;;;;;21.28;73.73;101169.59;7285509;19;151936;-57
2022/10/30 02:19:54;;;;;;;;;;;;;;;21.29;73.89;101165.66;7285967;19;152717;-59
2022/10/30 02:22:21;;;;;;;;;;;;;;;21.29;73.97;101159.19;7284049;19;152773;-57
2022/10/30 02:24:48;;;;;;;;;;;;;;;21.29;73.85;101159.19;7291346;19;152106;-57
2022/10/30 02:27:15;;;;;;;;;;;;;;;21.28;74.22;101178.03;7283564;19;153378;-58
2022/10/30 02:29:42;;;;;;;;;;;;;;;21.29;73.97;101182.53;7285459;19;152172;-56
2022/10/30 02:32:09;;;;;;;;;;;;;;;21.29;73.79;101174.09;7286099;19;152934;-57
2022/10/30 02:34:35;;;;;;;;;;;;;;;21.29;73.64;101174.09;7282237;19;154045;-58
2022/10/30 02:37:02;;;;;;;;;;;;;;;21.29;74.10;101162.00;7285776;19;152732;-58
2022/10/30 02:39:29;;;;;;;;;;;;;;;21.29;73.97;101167.63;7284751;19;152597;-57
2022/10/30 02:41:56;;;;;;;;;;;;;;;21.30;74.13;101169.31;7279441;19;153909;-57
2022/10/30 02:44:23;;;;;;;;;;;;;;;21.30;73.99;101166.50;7293166;19;152029;-58
2022/10/30 02:46:50;;;;;;;;;;;;;;;21.29;73.75;101173.25;7282273;19;152961;-57
2022/10/30 02:49:17;;;;;;;;;;;;;;;21.29;74.26;101174.09;7282821;19;153178;-57
2022/10/30 02:51:44;;;;;;;;;;;;;;;21.29;74.26;101170.44;7285217;19;153144;-58
2022/10/30 02:54:10;;;;;;;;;;;;;;;21.29;73.89;101154.41;7283017;19;154085;-57
2022/10/30 02:56:39;;;;;;;;;;;;;;;21.29;73.85;101154.41;7282600;19;151975;-58
2022/10/30 02:59:06;;;;;;;;;;;;;;;21.29;74.03;101151.59;7281443;19;153916;-58
2022/10/30 03:01:33;;;;;;;;;;;;;;;21.30;74.35;101152.44;7281592;19;153583;-61
2022/10/30 03:04:00;;;;;;;;;;;;;;;21.29;74.07;101151.59;7284650;19;152250;-57
2022/10/30 03:06:27;;;;;;;;;;;;;;;21.30;74.46;101153.25;7290137;19;152837;-58
2022/10/30 03:08:53;;;;;;;;;;;;;;;21.30;74.72;101163.69;7284349;19;152732;-57
2022/10/30 03:11:23;;;;;;;;;;;;;;;21.30;74.38;101158.06;7281694;19;151958;-57
2022/10/30 03:13:50;;;;;;;;;;;;;;;21.30;74.13;101158.06;7281707;19;153836;-57
2022/10/30 03:16:20;;;;;;;;;;;;;;;21.30;74.73;101149.63;7281499;19;152257;-58
2022/10/30 03:18:47;;;;;;;;;;;;;;;21.30;74.51;101144.81;7282757;19;152768;-57
2022/10/30 03:21:16;;;;;;;;;;;;;;;21.31;74.71;101148.47;7279880;19;152226;-58
2022/10/30 03:23:43;;;;;;;;;;;;;;;21.30;74.86;101152.44;7283432;19;151913;-57
2022/10/30 03:26:09;;;;;;;;;;;;;;;21.31;74.54;101154.09;7282253;19;153487;-58
2022/10/30 03:28:36;;;;;;;;;;;;;;;21.31;75.09;101156.91;7287778;19;154104;-58
2022/10/30 03:31:05;;;;;;;;;;;;;;;21.31;74.79;101173.75;7282877;19;152054;-58
2022/10/30 03:33:32;;;;;;;;;;;;;;;21.31;75.44;101168.13;7281229;19;153520;-58
2022/10/30 03:35:59;;;;;;;;;;;;;;;21.31;75.41;101170.94;7283053;19;153081;-59
2022/10/30 03:38:26;;;;;;;;;;;;;;;21.30;75.60;101167.28;7281290;19;153116;-58
2022/10/30 03:40:53;;;;;;;;;;;;;;;21.32;75.03;101166.16;7283068;19;152315;-58
2022/10/30 03:43:20;;;;;;;;;;;;;;;21.31;74.88;101182.19;7279630;19;152784;-58
2022/10/30 03:45:48;;;;;;;;;;;;;;;21.31;75.27;101185.00;7282829;19;153295;-58
2022/10/30 03:48:16;;;;;;;;;;;;;;;21.32;75.45;101191.47;7278296;19;152595;-58
2022/10/30 03:50:43;;;;;;;;;;;;;;;21.32;75.55;101188.66;7292234;19;153244;-58
2022/10/30 03:53:10;;;;;;;;;;;;;;;21.33;74.97;101179.09;7280563;19;153141;-58
2022/10/30 03:55:37;;;;;;;;;;;;;;;21.32;75.52;101172.63;7281512;19;152111;-58
2022/10/30 03:58:04;;;;;;;;;;;;;;;21.32;75.54;101164.19;7278147;19;152598;-57
2022/10/30 04:00:32;;;;;;;;;;;;;;;21.32;75.40;101168.97;7281033;19;154436;-57
2022/10/30 04:02:59;;;;;;;;;;;;;;;21.32;75.25;101157.72;7280684;19;152856;-57
2022/10/30 04:05:27;;;;;;;;;;;;;;;21.32;75.03;101150.13;7281334;19;152533;-57
2022/10/30 04:07:55;;;;;;;;;;;;;;;21.33;74.94;101156.59;7280795;19;153920;-57
2022/10/30 04:10:22;;;;;;;;;;;;;;;21.33;75.55;101162.22;7283634;19;152064;-57
2022/10/30 04:12:50;;;;;;;;;;;;;;;21.31;75.42;101165.31;7284296;19;153739;-57
2022/10/30 04:15:17;;;;;;;;;;;;;;;21.32;75.03;101168.97;7281597;19;152572;-57
2022/10/30 04:17:47;;;;;;;;;;;;;;;21.30;75.50;101167.28;7280967;19;155112;-58
2022/10/30 04:20:14;;;;;;;;;;;;;;;21.30;75.49;101161.69;7282237;19;153269;-57
2022/10/30 04:22:41;;;;;;;;;;;;;;;21.30;75.36;101164.50;7282452;19;151696;-57
2022/10/30 04:25:08;;;;;;;;;;;;;;;21.30;75.82;101158.88;7282657;19;152353;-57
2022/10/30 04:27:38;;;;;;;;;;;;;;;21.29;75.43;101157.22;7278166;19;153243;-57
2022/10/30 04:30:05;;;;;;;;;;;;;;;21.31;75.60;101173.75;7282237;19;152308;-57
2022/10/30 04:32:32;;;;;;;;;;;;;;;21.31;76.04;101173.75;7281563;19;153382;-57
2022/10/30 04:34:59;;;;;;;;;;;;;;;21.31;76.22;101173.75;7287744;19;153643;-57
2022/10/30 04:37:26;;;;;;;;;;;;;;;21.30;75.88;101167.28;7283138;19;153342;-58
2022/10/30 04:39:53;;;;;;;;;;;;;;;21.30;75.89;101161.69;7278551;19;153007;-58
2022/10/30 04:42:19;;;;;;;;;;;;;;;21.30;75.75;101155.25;7280321;19;151874;-58
2022/10/30 04:44:46;;;;;;;;;;;;;;;21.31;75.81;101145.66;7281761;19;153283;-58
2022/10/30 04:47:16;;;;;;;;;;;;;;;21.31;76.15;101140.03;7279254;19;153412;-58
2022/10/30 04:49:43;;;;;;;;;;;;;;;21.30;75.69;101144.00;7280432;19;153485;-58
2022/10/30 04:52:09;;;;;;;;;;;;;;;21.29;76.04;101139.53;7281150;19;153408;-58
2022/10/30 04:54:36;;;;;;;;;;;;;;;21.30;75.81;101139.19;7288940;19;153298;-57
2022/10/30 04:57:03;;;;;;;;;;;;;;;21.31;75.65;101134.41;7277968;19;153142;-57
2022/10/30 04:59:30;;;;;;;;;;;;;;;21.32;76.07;101135.25;7278677;19;152873;-59
2022/10/30 05:01:57;;;;;;;;;;;;;;;21.31;75.99;101137.22;7280702;19;151917;-58
2022/10/30 05:04:24;;;;;;;;;;;;;;;21.31;76.04;101137.22;7281467;19;153756;-58
2022/10/30 05:06:51;;;;;;;;;;;;;;;21.31;75.71;101137.22;7277530;19;154336;-58
2022/10/30 05:09:18;;;;;;;;;;;;;;;21.29;76.24;101129.13;7281663;19;152128;-57
2022/10/30 05:11:45;;;;;;;;;;;;;;;21.30;75.59;101133.56;7279000;19;152402;-58
2022/10/30 05:14:11;;;;;;;;;;;;;;;21.32;75.82;101135.25;7279114;19;153452;-57
2022/10/30 05:16:38;;;;;;;;;;;;;;;21.32;75.50;101140.88;7285853;19;151612;-57
2022/10/30 05:19:05;;;;;;;;;;;;;;;21.32;75.48;101129.63;7279949;19;153144;-57
2022/10/30 05:21:32;;;;;;;;;;;;;;;21.32;75.98;101132.44;7279433;19;152494;-57
2022/10/30 05:23:59;;;;;;;;;;;;;;;21.33;75.98;101125.69;7279630;19;153756;-57
2022/10/30 05:26:26;;;;;;;;;;;;;;;21.31;76.05;101140.03;7278676;19;153629;-57
2022/10/30 05:28:53;;;;;;;;;;;;;;;21.30;75.83;101136.38;7278732;19;152008;-58
2022/10/30 05:31:20;;;;;;;;;;;;;;;21.32;75.69;101135.25;7279642;19;153478;-58
2022/10/30 05:33:47;;;;;;;;;;;;;;;21.32;75.80;101146.50;7279946;19;154726;-58
2022/10/30 05:36:14;;;;;;;;;;;;;;;21.29;75.74;101140.38;7279864;19;152303;-57
2022/10/30 05:38:40;;;;;;;;;;;;;;;21.31;75.53;101137.22;7286785;19;152224;-58
2022/10/30 05:41:07;;;;;;;;;;;;;;;21.32;75.51;101138.91;7280556;19;152346;-58
2022/10/30 05:43:34;;;;;;;;;;;;;;;21.31;75.67;101142.84;7276888;19;153833;-58
2022/10/30 05:46:01;;;;;;;;;;;;;;;21.30;75.52;101144.81;7280715;19;153262;-57
2022/10/30 05:48:28;;;;;;;;;;;;;;;21.31;75.18;101148.47;7279788;19;151934;-57
2022/10/30 05:50:55;;;;;;;;;;;;;;;21.31;75.77;101159.72;7278191;19;152621;-57
2022/10/30 05:53:23;;;;;;;;;;;;;;;21.29;75.59;101162.84;7277711;19;152631;-57
2022/10/30 05:55:50;;;;;;;;;;;;;;;21.29;75.84;101162.00;7278687;19;152310;-58
2022/10/30 05:58:17;;;;;;;;;;;;;;;21.30;75.62;101146.81;7276351;19;155646;-57
2022/10/30 06:00:43;;;;;;;;;;;;;;;21.29;75.50;101139.53;7286920;19;153638;-57
2022/10/30 06:03:11;;;;;;;;;;;;;;;21.31;75.64;101154.09;7276495;19;151680;-58
2022/10/30 06:05:38;;;;;;;;;;;;;;;21.27;73.31;101155.84;7276176;19;153336;-56
2022/10/30 06:08:06;;;;;;;;;;;;;;;21.24;73.35;101157.31;7276982;19;151870;-58
2022/10/30 06:10:33;;;;;;;;;;;;;;;21.24;73.21;101165.75;7277680;19;151980;-58
2022/10/30 06:13:01;;;;;;;;;;;;;;;21.23;73.85;101158.44;7272496;19;153476;-58
2022/10/30 06:15:29;;;;;;;;;;;;;;;21.24;73.40;101162.09;7276234;19;152378;-57
2022/10/30 06:17:56;;;;;;;;;;;;;;;21.23;73.90;101157.59;7278838;19;153586;-57
2022/10/30 06:20:25;;;;;;;;;;;;;;;21.22;73.79;101156.78;7276038;19;153956;-57
2022/10/30 06:22:55;;;;;;;;;;;;;;;21.22;73.78;101150.31;7285666;19;152650;-57
2022/10/30 06:25:22;;;;;;;;;;;;;;;21.22;74.00;101156.78;7277679;19;153231;-57
2022/10/30 06:27:49;;;;;;;;;;;;;;;21.21;73.74;101149.47;7274838;19;152533;-58
2022/10/30 06:30:16;;;;;;;;;;;;;;;21.22;74.24;101158.75;7277199;19;153552;-57
2022/10/30 06:32:43;;;;;;;;;;;;;;;21.22;74.18;101155.94;7276907;19;154275;-58
2022/10/30 06:35:10;;;;;;;;;;;;;;;21.22;74.16;101147.50;7285010;19;153034;-58
2022/10/30 06:40:08;;;;;;;;;;;;;;;21.23;74.18;101154.81;7284699;19;153869;-58
2022/10/30 06:42:40;;;;;;;;;;;;;;;21.23;74.16;101160.41;7281361;19;152054;-58
2022/10/30 06:45:07;;;;;;;;;;;;;;;21.23;73.99;101157.59;7291218;19;153137;-58
2022/10/30 06:47:34;;;;;;;;;;;;;;;21.21;73.85;101160.72;7283389;19;151783;-58
2022/10/30 06:50:02;;;;;;;;;;;;;;;21.22;74.16;101164.38;7285233;19;152134;-58
2022/10/30 06:52:29;;;;;;;;;;;;;;;21.21;73.95;101155.09;7283674;19;152866;-57
2022/10/30 06:54:55;;;;;;;;;;;;;;;21.20;74.42;101153.44;7285225;19;154078;-58
2022/10/30 06:57:22;;;;;;;;;;;;;;;21.21;73.92;101160.72;7281454;19;153665;-58
2022/10/30 06:59:49;;;;;;;;;;;;;;;21.22;74.50;101167.16;7282105;19;153793;-58
2022/10/30 07:02:16;;;;;;;;;;;;;;;21.21;74.20;101168.34;7283522;19;152467;-57
2022/10/30 07:04:44;;;;;;;;;;;;;;;21.21;74.52;101173.97;7291686;19;153221;-58
2022/10/30 07:07:11;;;;;;;;;;;;;;;21.21;74.51;101176.78;7282231;19;151902;-58
2022/10/30 07:09:38;;;;;;;;;;;;;;;21.20;74.53;101180.72;7283924;19;153247;-58
2022/10/30 07:12:06;;;;;;;;;;;;;;;21.20;74.59;101181.56;7282118;19;154966;-58
2022/10/30 07:14:33;;;;;;;;;;;;;;;21.20;74.66;101191.97;7281982;19;151794;-58
2022/10/30 07:17:00;;;;;;;;;;;;;;;21.20;74.28;101189.97;7283715;19;151949;-58
2022/10/30 07:19:27;;;;;;;;;;;;;;;21.19;74.61;101191.13;7283707;19;153439;-58
2022/10/30 07:21:53;;;;;;;;;;;;;;;21.19;74.48;101196.75;7284575;19;152966;-58
2022/10/30 07:24:20;;;;;;;;;;;;;;;21.19;74.67;101196.75;7285035;19;153726;-57
2022/10/30 07:26:47;;;;;;;;;;;;;;;21.19;74.99;101193.94;7288585;19;154501;-57
2022/10/30 07:29:14;;;;;;;;;;;;;;;21.19;74.97;101182.69;7282125;19;152015;-58
2022/10/30 07:31:42;;;;;;;;;;;;;;;21.19;74.74;101179.03;7282422;19;153275;-58
2022/10/30 07:34:27;;;;;;;;;;;;;;;21.18;75.05;101152.06;7283142;19;153379;-57
2022/10/30 07:36:54;;;;;;;;;;;;;;;21.19;74.88;101156.56;7284547;19;153173;-58
2022/10/30 07:39:21;;;;;;;;;;;;;;;21.19;75.01;101156.56;7281882;19;153901;-57
2022/10/30 07:41:49;;;;;;;;;;;;;;;21.19;75.31;101162.19;7282776;19;152827;-58
2022/10/30 07:44:16;;;;;;;;;;;;;;;21.17;75.03;101154.03;7280579;19;154506;-58
2022/10/30 07:46:43;;;;;;;;;;;;;;;21.19;75.11;101162.19;7283219;19;153395;-57
2022/10/30 07:49:09;;;;;;;;;;;;;;;21.19;74.93;101171.44;7289194;19;152398;-57
2022/10/30 07:51:36;;;;;;;;;;;;;;;21.18;75.08;101172.59;7279771;19;154450;-57
2022/10/30 07:54:03;;;;;;;;;;;;;;;21.19;75.66;101176.22;7284350;19;152703;-57
2022/10/30 07:56:30;;;;;;;;;;;;;;;21.19;74.99;101179.03;7280946;19;153563;-57
2022/10/30 07:58:57;;;;;;;;;;;;;;;21.20;75.12;101192.78;7278209;19;153243;-58
2022/10/30 08:01:24;;;;;;;;;;;;;;;21.21;74.98;101193.63;7283536;19;152762;-57
2022/10/30 08:03:51;;;;;;;;;;;;;;;21.20;74.92;101192.78;7282979;19;153370;-57
2022/10/30 08:06:18;;;;;;;;;;;;;;;21.21;74.96;101183.19;7281394;19;153386;-57
2022/10/30 08:08:51;;;;;;;;;;;;;;;21.24;76.15;101170.53;7284165;19;151880;-57
2022/10/30 08:11:18;;;;;;;;;;;;;;;21.27;77.17;101172.72;7287834;19;154008;-57
2022/10/30 08:13:45;;;;;;;;;;;;;;;21.30;77.64;101170.09;7279747;19;151855;-57
2022/10/30 08:16:12;;;;;;;;;;;;;;;21.33;78.34;101177.09;7281389;19;152763;-58
2022/10/30 08:18:41;;;;;;;;;;;;;;;21.37;78.47;101183.78;7281499;19;154375;-58
2022/10/30 08:21:08;;;;;;;;;;;;;;;21.41;78.87;101195.22;7283667;19;152270;-58
2022/10/30 08:23:35;;;;;;;;;;;;;;;21.44;78.49;101201.06;7283827;19;152595;-58
2022/10/30 08:26:02;;;;;;;;;;;;;;;21.48;78.33;101179.66;7281010;19;154164;-58
2022/10/30 08:28:29;;;;;;;;;;;;;;;21.50;78.61;101185.78;7279548;19;153608;-58
2022/10/30 08:30:59;;;;;;;;;;;;;;;21.54;78.47;101178.41;7281436;19;152319;-58
2022/10/30 08:33:26;;;;;;;;;;;;;;;21.57;78.28;101183.41;7286738;19;154438;-58
2022/10/30 08:35:55;;;;;;;;;;;;;;;21.59;78.42;101183.09;7283165;19;152262;-58
2022/10/30 08:38:22;;;;;;;;;;;;;;;21.61;77.81;101192.91;7278722;19;153607;-58
2022/10/30 08:40:49;;;;;;;;;;;;;;;21.65;77.94;101188.31;7279448;19;154793;-58
2022/10/30 08:43:16;;;;;;;;;;;;;;;21.67;77.62;101185.19;7277654;19;152897;-58
2022/10/30 08:45:44;;;;;;;;;;;;;;;21.70;77.44;101182.59;7281772;19;153598;-58
2022/10/30 08:48:12;;;;;;;;;;;;;;;21.72;77.50;101174.66;7279724;19;151900;-57
2022/10/30 08:50:39;;;;;;;;;;;;;;;21.74;77.23;101168.75;7282363;19;152758;-57
2022/10/30 08:53:07;;;;;;;;;;;;;;;21.77;77.40;101178.53;7280998;19;152897;-58
2022/10/30 08:55:34;;;;;;;;;;;;;;;21.79;76.90;101191.16;7287121;19;151862;-58
2022/10/30 08:58:02;;;;;;;;;;;;;;;21.81;77.03;101180.41;7271826;19;153669;-58
2022/10/30 09:00:28;;;;;;;;;;;;;;;21.83;76.70;101168.84;7282149;19;152408;-58
2022/10/30 09:02:56;;;;;;;;;;;;;;;21.83;76.73;101164.06;7282348;19;152365;-57
2022/10/30 09:05:24;;;;;;;;;;;;;;;21.85;76.92;101187.06;7278085;19;154487;-57
2022/10/30 09:07:54;;;;;;;;;;;;;;;21.85;76.75;101178.63;7282424;19;152309;-57
2022/10/30 09:10:21;;;;;;;;;;;;;;;21.86;76.42;101152.19;7282539;19;153063;-57
2022/10/30 09:12:53;;;;;;;;;;;;;;;21.87;76.48;101134.16;7276467;19;153068;-57
2022/10/30 09:15:19;;;;;;;;;;;;;;;21.87;76.17;101122.91;7288040;19;152351;-58
2022/10/30 09:17:46;;;;;;;;;;;;;;;21.89;76.10;101136.66;7278412;19;154375;-58
2022/10/30 09:20:13;;;;;;;;;;;;;;;21.89;75.71;101133.84;7281519;19;151907;-57
2022/10/30 09:22:41;;;;;;;;;;;;;;;21.89;76.02;101114.16;7279981;19;153671;-58
2022/10/30 09:25:08;;;;;;;;;;;;;;;21.89;75.61;101120.63;7279737;19;153449;-57
2022/10/30 09:27:36;;;;;;;;;;;;;;;21.91;75.38;101162.50;7278536;19;151867;-57
2022/10/30 09:30:04;;;;;;;;;;;;;;;21.90;75.55;101186.13;7281101;19;153105;-57
2022/10/30 09:32:30;;;;;;;;;;;;;;;21.93;75.37;101216.50;7278437;19;153616;-57
2022/10/30 09:34:57;;;;;;;;;;;;;;;21.92;75.03;101248.56;7280980;19;153329;-58
2022/10/30 09:37:26;;;;;;;;;;;;;;;21.93;75.13;101245.47;7286348;19;152747;-58
2022/10/30 09:39:52;;;;;;;;;;;;;;;21.94;75.16;101263.19;7278231;19;152818;-58
2022/10/30 09:42:20;;;;;;;;;;;;;;;21.92;74.28;101260.66;7278723;19;153322;-58
2022/10/30 09:44:49;;;;;;;;;;;;;;;21.92;74.94;101259.81;7277508;19;153917;-57
2022/10/30 09:47:37;;;;;;;;;;;;;;;21.92;74.36;101220.44;7279490;19;152018;-57
2022/10/30 09:50:05;;;;;;;;;;;;;;;21.91;74.83;101179.38;7280070;19;152713;-57
2022/10/30 09:52:32;;;;;;;;;;;;;;;21.92;74.57;101195.13;7279211;19;153799;-57
2022/10/30 09:55:00;;;;;;;;;;;;;;;21.92;74.89;101214.81;7280806;19;151946;-57
2022/10/30 09:57:27;;;;;;;;;;;;;;;21.91;74.74;101191.47;7276121;19;152928;-58
2022/10/30 09:59:58;;;;;;;;;;;;;;;21.90;74.67;101191.75;7284006;19;152838;-57
2022/10/30 10:02:28;;;;;;;;;;;;;;;21.91;75.00;101205.53;7278769;19;152863;-58
2022/10/30 10:04:58;;;;;;;;;;;;;;;21.91;74.71;101199.06;7278113;19;154957;-58
2022/10/30 10:07:25;;;;;;;;;;;;;;;21.92;74.88;101214.81;7279054;19;152266;-59
2022/10/30 10:09:57;;;;;;;;;;;;;;;21.91;75.06;101210.31;7287044;19;153784;-58
2022/10/30 10:12:29;;;;;;;;;;;;;;;21.98;74.32;101210.78;7280483;19;154282;-57
2022/10/30 10:14:56;;;;;;;;;;;;;;;21.98;73.89;101202.34;7281445;19;155185;-57
2022/10/30 10:17:29;;;;;;;;;;;;;;;21.96;72.79;101205.47;7282516;19;152934;-57
2022/10/30 10:19:58;;;;;;;;;;;;;;;21.95;72.07;101202.94;7285207;19;152859;-57
2022/10/30 10:22:31;;;;;;;;;;;;;;;21.95;72.25;101206.59;7291517;19;152138;-57
2022/10/30 10:24:58;;;;;;;;;;;;;;;21.94;71.71;101215.38;7284126;19;153478;-57
2022/10/30 10:27:27;;;;;;;;;;;;;;;21.95;71.39;101219.81;7282090;19;152410;-58
2022/10/30 10:29:57;;;;;;;;;;;;;;;21.95;71.68;101222.66;7284047;19;154108;-58
2022/10/30 10:32:32;;;;;;;;;;;;;;;21.95;71.75;101223.47;7284430;19;153266;-58
2022/10/30 10:35:00;;;;;;;;;;;;;;;21.96;71.97;101224.31;7286235;19;151916;-57
2022/10/30 10:37:28;;;;;;;;;;;;;;;21.95;72.44;101217.00;7284193;19;153595;-57
2022/10/30 10:39:56;;;;;;;;;;;;;;;21.98;71.85;101222.88;7283537;19;154328;-57
2022/10/30 10:42:33;;;;;;;;;;;;;;;21.93;68.31;101222.13;7281478;19;152058;-57
2022/10/30 10:45:03;;;;;;;;;;;;;;;21.84;65.24;101212.72;7290697;19;153649;-57
2022/10/30 10:47:32;;;;;;;;;;;;;;;21.68;64.02;101217.78;7285129;19;151885;-56
2022/10/30 10:49:59;;;;;;;;;;;;;;;21.69;63.95;101225.94;7284981;19;153761;-56
2022/10/30 10:52:33;;;;;;;;;;;;;;;21.62;63.18;101228.28;7284607;19;154153;-57
2022/10/30 10:55:04;;;;;;;;;;;;;;;21.36;61.73;101229.88;7283607;19;151916;-56
2022/10/30 10:57:32;;;;;;;;;;;;;;;21.21;62.12;101216.91;7282857;19;152530;-57
2022/10/30 11:00:02;;;;;;;;;;;;;;;21.12;61.51;101207.47;7282673;19;154112;-56
2022/10/30 11:02:30;;;;;;;;;;;;;;;21.07;61.79;101215.19;7284617;19;152392;-57
2022/10/30 11:05:01;;;;;;;;;;;;;;;20.96;61.63;101228.56;7284889;19;153837;-57
2022/10/30 11:07:31;;;;;;;;;;;;;;;20.95;62.56;101223.22;7289624;19;152662;-57
2022/10/30 11:09:58;;;;;;;;;;;;;;;20.95;61.91;101223.22;7282913;19;152863;-57
2022/10/30 11:12:25;;;;;;;;;;;;;;;20.86;62.19;101209.03;7279126;19;153013;-57
2022/10/30 11:15:00;;;;;;;;;;;;;;;20.78;62.25;101220.97;7283627;19;152342;-57
2022/10/30 11:17:34;;;;;;;;;;;;;;;20.67;62.12;101231.50;7283689;19;153211;-56
2022/10/30 11:20:10;;;;;;;;;;;;;;;20.70;62.94;101225.28;7279949;19;153245;-56
2022/10/30 11:22:40;;;;;;;;;;;;;;;20.74;63.16;101222.72;7282987;19;153093;-57
2022/10/30 11:25:17;;;;;;;;;;;;;;;20.68;62.99;101238.78;7284063;19;153755;-56
2022/10/30 11:27:46;;;;;;;;;;;;;;;20.69;63.12;101222.78;7286470;19;152756;-57
2022/10/30 11:30:16;;;;;;;;;;;;;;;20.72;63.08;101216.56;7284165;19;152791;-57
2022/10/30 11:32:43;;;;;;;;;;;;;;;20.75;63.39;101216.81;7283094;19;154142;-56
2022/10/30 11:35:12;;;;;;;;;;;;;;;20.80;63.43;101218.69;7283790;19;152349;-56
2022/10/30 11:37:40;;;;;;;;;;;;;;;20.80;63.59;101216.69;7284318;19;152012;-56
2022/10/30 11:40:09;;;;;;;;;;;;;;;20.88;63.89;101203.13;7282461;19;153472;-56
2022/10/30 11:42:39;;;;;;;;;;;;;;;20.92;63.72;101212.59;7282391;19;152616;-56
2022/10/30 11:45:13;;;;;;;;;;;;;;;20.89;64.04;101205.63;7282085;19;153266;-56
2022/10/30 11:47:40;;;;;;;;;;;;;;;20.94;63.88;101205.53;7279755;19;153553;-57
2022/10/30 11:50:10;;;;;;;;;;;;;;;20.95;64.00;101203.56;7287912;19;151862;-57
2022/10/30 11:52:40;;;;;;;;;;;;;;;20.96;63.71;101203.25;7281879;19;153957;-56
2022/10/30 11:55:13;;;;;;;;;;;;;;;20.96;63.54;101214.50;7282835;19;153345;-57
2022/10/30 11:57:42;;;;;;;;;;;;;;;21.01;63.78;101208.81;7281063;19;153642;-57
2022/10/30 12:00:12;;;;;;;;;;;;;;;20.98;63.53;101209.44;7277607;19;153311;-56
2022/10/30 12:02:40;;;;;;;;;;;;;;;21.02;63.73;101201.22;7282898;19;152258;-57
2022/10/30 12:05:10;;;;;;;;;;;;;;;21.03;63.19;101211.31;7281679;19;152789;-57
2022/10/30 12:07:37;;;;;;;;;;;;;;;21.02;63.52;101204.03;7281764;19;152914;-56
2022/10/30 12:10:04;;;;;;;;;;;;;;;21.02;63.28;101201.22;7283343;19;154347;-57
2022/10/30 12:12:34;;;;;;;;;;;;;;;21.02;63.44;101202.06;7287300;19;153155;-57
2022/10/30 12:15:07;;;;;;;;;;;;;;;21.05;63.17;101197.78;7282370;19;152533;-57
2022/10/30 12:17:35;;;;;;;;;;;;;;;21.02;63.51;101202.06;7283404;19;152602;-57
2022/10/30 12:20:03;;;;;;;;;;;;;;;21.06;63.69;101202.28;7278897;19;154727;-57
2022/10/30 12:22:31;;;;;;;;;;;;;;;21.05;63.80;101195.81;7282574;19;152102;-57
2022/10/30 12:25:00;;;;;;;;;;;;;;;21.08;63.83;101197.16;7281336;19;152904;-57
2022/10/30 12:27:28;;;;;;;;;;;;;;;21.10;64.05;101201.34;7278431;19;154279;-57
2022/10/30 12:29:58;;;;;;;;;;;;;;;21.00;62.93;101200.69;7280291;19;151874;-57
2022/10/30 12:32:40;;;;;;;;;;;;;;;21.00;63.25;101200.69;7281549;19;152650;-57
2022/10/30 12:35:10;;;;;;;;;;;;;;;21.07;64.55;101201.13;7288959;19;152970;-57